Airfield :
LOGIN :

Register | Disclaimer

   EN    FR    IT 

 










Legend :    VFR   Marginal VFR   IFR   Intensive IFR   Very Intensive IFR
Visi :
Ceiling :
>= 8 km
>= 3000ft
5 to 8 km
1000 to 3000 ft
1500m to 5 km
500 to 1000 ft
800 to 1500m
200 to 500 ft
< 800m
< 200 ft
Symbols :   Thunderstorms  Fog  Heavy snow  Heavy precipitations  Wind > 20 kt
SIGMETs :     Misc.  Thunderstorms  Icing  Turbulence  Mountain Waves  Volcanic Ashes






- Airport Elevation : 38 ft
- IATA code : TRE


EGPU - Tiree

CURRENT METAR :
  • 311220Z 20039G60KT 9999 -SHRA FEW028 BKN032 11/07 Q0977

EXPIRED METARs :
  • 311150Z 21035G45KT 9999 SCT018 11/08 Q0978
  • 311120Z 21029KT 9999 VCSH FEW006 SCT020 12/10 Q0978
  • 311050Z 21026G37KT 9999 VCSH SCT006 11/10 Q0978
  • 311020Z AUTO 20027KT 180V240 0550 +RA SCT006/// SCT032/// 11/10 Q0979
  • 310950Z AUTO 16043G57KT 1700 HZ FEW010/// BKN031/// 14/12 Q0978

TAF TAF EGPU
Valid from the 31 at 12:00 until the 31 at 19:00 UTC


311106Z 3112/3119 20032G48KT 9999 BKN020
TEMPO 3112/3115 4000 SHRA BKN014
PROB40
TEMPO 3113/3115 21022G32KT
BECMG 3114/3117 26035G50KT



MET'MAP, your aeronautical weather chart ! - Copyright ORBIFLY December 2007 - Disclaimer

ORBIFLY MET'MAP TEAM :

Programming & Development : Alexandra Zaïnal
Concept & original design : Baudouin d'Aumeries
Assistance for programming : Marc-Olivier Méhu
Technical & hardware support : Manuel Goepfert

Contact : metmap@orbifly.com




SOURCES & CREDITS :

   NOAA